sensor_id;sensor_type;location;lat;lon;timestamp;pressure;altitude;pressure_sealevel;temperature;humidity
20971;BME280;10644;48.834;10.088;2023-04-25T00:00:33;96011.88;;;13.18;54.50
20971;BME280;10644;48.834;10.088;2023-04-25T00:02:59;96016.66;;;13.22;54.22
20971;BME280;10644;48.834;10.088;2023-04-25T00:05:26;96007.22;;;13.23;54.62
20971;BME280;10644;48.834;10.088;2023-04-25T00:07:51;96003.09;;;13.20;54.13
20971;BME280;10644;48.834;10.088;2023-04-25T00:10:20;96004.50;;;13.24;54.27
20971;BME280;10644;48.834;10.088;2023-04-25T00:12:45;96013.88;;;13.25;54.32
20971;BME280;10644;48.834;10.088;2023-04-25T00:15:11;96009.41;;;13.27;53.91
20971;BME280;10644;48.834;10.088;2023-04-25T00:17:37;96014.56;;;13.27;54.17
20971;BME280;10644;48.834;10.088;2023-04-25T00:20:04;96022.16;;;13.29;53.79
20971;BME280;10644;48.834;10.088;2023-04-25T00:22:36;96021.94;;;13.32;54.00
20971;BME280;10644;48.834;10.088;2023-04-25T00:25:06;96008.47;;;13.28;53.85
20971;BME280;10644;48.834;10.088;2023-04-25T00:27:32;96005.69;;;13.31;54.15
20971;BME280;10644;48.834;10.088;2023-04-25T00:29:58;96013.88;;;13.36;53.91
20971;BME280;10644;48.834;10.088;2023-04-25T00:32:23;96011.53;;;13.33;54.22
20971;BME280;10644;48.834;10.088;2023-04-25T00:34:49;96010.00;;;13.31;54.13
20971;BME280;10644;48.834;10.088;2023-04-25T00:37:16;96008.97;;;13.33;54.78
20971;BME280;10644;48.834;10.088;2023-04-25T00:39:41;96006.28;;;13.35;54.42
20971;BME280;10644;48.834;10.088;2023-04-25T00:42:07;96011.31;;;13.36;54.25
20971;BME280;10644;48.834;10.088;2023-04-25T00:44:34;96011.31;;;13.36;54.15
20971;BME280;10644;48.834;10.088;2023-04-25T00:47:01;96008.28;;;13.42;54.13
20971;BME280;10644;48.834;10.088;2023-04-25T00:49:27;96013.06;;;13.36;54.20
20971;BME280;10644;48.834;10.088;2023-04-25T00:51:52;96002.66;;;13.26;54.82
20971;BME280;10644;48.834;10.088;2023-04-25T00:54:18;96007.22;;;13.23;54.80
20971;BME280;10644;48.834;10.088;2023-04-25T00:56:44;96007.06;;;13.24;54.33
20971;BME280;10644;48.834;10.088;2023-04-25T00:59:10;96005.09;;;13.17;54.65
20971;BME280;10644;48.834;10.088;2023-04-25T01:01:36;96010.47;;;12.90;54.95
20971;BME280;10644;48.834;10.088;2023-04-25T01:04:06;95999.47;;;12.43;56.05
20971;BME280;10644;48.834;10.088;2023-04-25T01:06:32;96012.97;;;12.10;57.05
20971;BME280;10644;48.834;10.088;2023-04-25T01:08:58;96015.28;;;12.02;57.42
20971;BME280;10644;48.834;10.088;2023-04-25T01:11:24;96001.41;;;12.05;57.27
20971;BME280;10644;48.834;10.088;2023-04-25T01:13:52;96016.44;;;12.22;56.75
20971;BME280;10644;48.834;10.088;2023-04-25T01:16:18;96007.13;;;12.08;57.67
20971;BME280;10644;48.834;10.088;2023-04-25T01:18:43;96001.53;;;12.27;57.19
20971;BME280;10644;48.834;10.088;2023-04-25T01:21:11;95987.78;;;12.15;57.33
20971;BME280;10644;48.834;10.088;2023-04-25T01:23:41;95993.88;;;12.14;57.29
20971;BME280;10644;48.834;10.088;2023-04-25T01:26:10;95994.56;;;12.40;56.83
20971;BME280;10644;48.834;10.088;2023-04-25T01:28:37;95990.03;;;12.43;56.95
20971;BME280;10644;48.834;10.088;2023-04-25T01:31:04;95986.97;;;12.38;56.64
20971;BME280;10644;48.834;10.088;2023-04-25T01:33:33;95994.06;;;12.35;56.91
20971;BME280;10644;48.834;10.088;2023-04-25T01:35:58;95975.06;;;12.37;56.89
20971;BME280;10644;48.834;10.088;2023-04-25T01:38:24;95976.25;;;12.44;56.35
20971;BME280;10644;48.834;10.088;2023-04-25T01:40:51;95982.66;;;12.39;56.57
20971;BME280;10644;48.834;10.088;2023-04-25T01:43:17;95975.56;;;12.42;56.24
20971;BME280;10644;48.834;10.088;2023-04-25T01:45:42;95968.56;;;12.55;56.00
20971;BME280;10644;48.834;10.088;2023-04-25T01:48:12;95977.34;;;12.64;56.20
20971;BME280;10644;48.834;10.088;2023-04-25T01:50:40;95986.41;;;12.46;56.62
20971;BME280;10644;48.834;10.088;2023-04-25T01:53:06;95981.22;;;12.58;56.40
20971;BME280;10644;48.834;10.088;2023-04-25T01:55:34;95975.16;;;12.70;55.89
20971;BME280;10644;48.834;10.088;2023-04-25T01:58:00;95977.50;;;12.73;55.52
20971;BME280;10644;48.834;10.088;2023-04-25T02:00:27;95977.97;;;12.78;55.57
20971;BME280;10644;48.834;10.088;2023-04-25T02:02:58;95972.53;;;12.83;55.45
20971;BME280;10644;48.834;10.088;2023-04-25T02:05:23;95977.41;;;12.86;55.47
20971;BME280;10644;48.834;10.088;2023-04-25T02:07:51;95981.50;;;12.88;55.55
20971;BME280;10644;48.834;10.088;2023-04-25T02:10:16;95987.03;;;12.95;55.08
20971;BME280;10644;48.834;10.088;2023-04-25T02:12:41;95975.69;;;12.86;55.50
20971;BME280;10644;48.834;10.088;2023-04-25T02:15:07;95981.16;;;12.93;55.08
20971;BME280;10644;48.834;10.088;2023-04-25T02:17:32;95982.50;;;12.98;55.08
20971;BME280;10644;48.834;10.088;2023-04-25T02:19:58;95974.78;;;12.98;55.31
20971;BME280;10644;48.834;10.088;2023-04-25T02:22:24;95975.97;;;13.05;54.87
20971;BME280;10644;48.834;10.088;2023-04-25T02:24:49;95974.81;;;13.09;55.23
20971;BME280;10644;48.834;10.088;2023-04-25T02:27:15;95969.66;;;13.09;54.92
20971;BME280;10644;48.834;10.088;2023-04-25T02:29:40;95968.84;;;13.09;55.01
20971;BME280;10644;48.834;10.088;2023-04-25T02:32:08;95958.66;;;13.07;54.69
20971;BME280;10644;48.834;10.088;2023-04-25T02:34:33;95974.22;;;13.06;54.96
20971;BME280;10644;48.834;10.088;2023-04-25T02:36:58;95962.88;;;12.97;55.04
20971;BME280;10644;48.834;10.088;2023-04-25T02:39:26;95971.75;;;13.04;55.34
20971;BME280;10644;48.834;10.088;2023-04-25T02:41:52;95951.41;;;13.01;55.22
20971;BME280;10644;48.834;10.088;2023-04-25T02:44:18;95972.25;;;13.09;55.17
20971;BME280;10644;48.834;10.088;2023-04-25T02:46:43;95956.34;;;13.04;55.12
20971;BME280;10644;48.834;10.088;2023-04-25T02:49:08;95951.66;;;13.09;55.34
20971;BME280;10644;48.834;10.088;2023-04-25T02:51:34;95953.41;;;13.09;55.34
20971;BME280;10644;48.834;10.088;2023-04-25T02:54:00;95959.13;;;13.12;55.33
20971;BME280;10644;48.834;10.088;2023-04-25T02:56:25;95947.69;;;13.16;55.63
20971;BME280;10644;48.834;10.088;2023-04-25T02:58:51;95941.59;;;13.17;55.42
20971;BME280;10644;48.834;10.088;2023-04-25T03:01:16;95936.47;;;13.17;54.95
20971;BME280;10644;48.834;10.088;2023-04-25T03:03:42;95940.91;;;13.26;55.18
20971;BME280;10644;48.834;10.088;2023-04-25T03:06:07;95944.53;;;13.24;55.26
20971;BME280;10644;48.834;10.088;2023-04-25T03:08:35;95950.00;;;13.30;55.22
20971;BME280;10644;48.834;10.088;2023-04-25T03:11:00;95942.31;;;13.30;55.18
20971;BME280;10644;48.834;10.088;2023-04-25T03:13:26;95947.22;;;13.33;54.79
20971;BME280;10644;48.834;10.088;2023-04-25T03:15:55;95939.41;;;13.35;54.76
20971;BME280;10644;48.834;10.088;2023-04-25T03:18:23;95949.31;;;13.39;55.16
20971;BME280;10644;48.834;10.088;2023-04-25T03:20:51;95946.16;;;13.36;54.78
20971;BME280;10644;48.834;10.088;2023-04-25T03:23:16;95952.47;;;13.32;54.94
20971;BME280;10644;48.834;10.088;2023-04-25T03:25:42;95941.97;;;13.35;54.86
20971;BME280;10644;48.834;10.088;2023-04-25T03:28:08;95947.22;;;13.33;54.95
20971;BME280;10644;48.834;10.088;2023-04-25T03:30:33;95936.00;;;13.34;54.79
20971;BME280;10644;48.834;10.088;2023-04-25T03:33:01;95932.84;;;13.31;54.49
20971;BME280;10644;48.834;10.088;2023-04-25T03:35:26;95940.44;;;13.21;54.60
20971;BME280;10644;48.834;10.088;2023-04-25T03:37:51;95942.06;;;13.11;54.81
20971;BME280;10644;48.834;10.088;2023-04-25T03:40:17;95939.50;;;13.00;54.87
20971;BME280;10644;48.834;10.088;2023-04-25T03:42:42;95940.97;;;12.92;55.43
20971;BME280;10644;48.834;10.088;2023-04-25T03:45:08;95942.03;;;12.89;55.49
20971;BME280;10644;48.834;10.088;2023-04-25T03:47:35;95947.41;;;12.86;55.15
20971;BME280;10644;48.834;10.088;2023-04-25T03:50:01;95944.69;;;12.66;56.00
20971;BME280;10644;48.834;10.088;2023-04-25T03:52:28;95949.59;;;12.69;55.63
20971;BME280;10644;48.834;10.088;2023-04-25T03:54:53;95953.56;;;12.73;55.82
20971;BME280;10644;48.834;10.088;2023-04-25T03:57:19;95962.66;;;12.66;56.03
20971;BME280;10644;48.834;10.088;2023-04-25T03:59:46;95950.16;;;12.72;55.91
20971;BME280;10644;48.834;10.088;2023-04-25T04:02:12;95950.41;;;12.69;55.76
20971;BME280;10644;48.834;10.088;2023-04-25T04:04:38;95955.09;;;12.75;56.07
20971;BME280;10644;48.834;10.088;2023-04-25T04:07:03;95946.66;;;12.73;55.86
20971;BME280;10644;48.834;10.088;2023-04-25T04:09:28;95948.44;;;12.73;55.82
20971;BME280;10644;48.834;10.088;2023-04-25T04:11:54;95942.72;;;12.80;55.59
20971;BME280;10644;48.834;10.088;2023-04-25T04:14:22;95961.06;;;12.87;55.76
20971;BME280;10644;48.834;10.088;2023-04-25T04:16:47;95957.69;;;12.86;55.67
20971;BME280;10644;48.834;10.088;2023-04-25T04:19:15;95955.56;;;12.69;56.73
20971;BME280;10644;48.834;10.088;2023-04-25T04:21:43;95944.34;;;12.81;56.32
20971;BME280;10644;48.834;10.088;2023-04-25T04:24:08;95951.94;;;12.93;55.95
20971;BME280;10644;48.834;10.088;2023-04-25T04:26:36;95950.66;;;12.88;55.93
20971;BME280;10644;48.834;10.088;2023-04-25T04:29:02;95947.06;;;12.91;55.95
20971;BME280;10644;48.834;10.088;2023-04-25T04:31:28;95958.16;;;12.80;55.57
20971;BME280;10644;48.834;10.088;2023-04-25T04:33:53;95954.06;;;12.78;55.72
20971;BME280;10644;48.834;10.088;2023-04-25T04:36:19;95958.28;;;12.90;55.78
20971;BME280;10644;48.834;10.088;2023-04-25T04:38:50;95943.78;;;12.89;55.58
20971;BME280;10644;48.834;10.088;2023-04-25T04:41:18;95950.22;;;12.94;55.50
20971;BME280;10644;48.834;10.088;2023-04-25T04:43:44;95946.53;;;12.98;55.44
20971;BME280;10644;48.834;10.088;2023-04-25T04:46:10;95952.72;;;12.96;55.12
20971;BME280;10644;48.834;10.088;2023-04-25T04:48:35;95949.28;;;12.95;55.27
20971;BME280;10644;48.834;10.088;2023-04-25T04:51:01;95958.16;;;12.91;54.97
20971;BME280;10644;48.834;10.088;2023-04-25T04:53:27;95953.81;;;12.81;55.18
20971;BME280;10644;48.834;10.088;2023-04-25T04:55:54;95957.44;;;12.89;55.16
20971;BME280;10644;48.834;10.088;2023-04-25T04:58:20;95960.75;;;12.91;55.36
20971;BME280;10644;48.834;10.088;2023-04-25T05:00:47;95964.09;;;12.92;54.99
20971;BME280;10644;48.834;10.088;2023-04-25T05:03:15;95969.16;;;12.93;55.89
20971;BME280;10644;48.834;10.088;2023-04-25T05:05:41;95963.88;;;12.84;55.86
20971;BME280;10644;48.834;10.088;2023-04-25T05:08:06;95957.31;;;12.80;56.13
20971;BME280;10644;48.834;10.088;2023-04-25T05:10:32;95957.22;;;12.92;56.63
20971;BME280;10644;48.834;10.088;2023-04-25T05:12:57;95953.41;;;12.98;56.17
20971;BME280;10644;48.834;10.088;2023-04-25T05:15:23;95962.63;;;13.00;56.07
20971;BME280;10644;48.834;10.088;2023-04-25T05:17:50;95957.13;;;13.05;55.73
20971;BME280;10644;48.834;10.088;2023-04-25T05:20:16;95954.56;;;13.05;55.64
20971;BME280;10644;48.834;10.088;2023-04-25T05:22:45;95963.31;;;13.02;55.87
20971;BME280;10644;48.834;10.088;2023-04-25T05:25:11;95950.94;;;12.96;55.73
20971;BME280;10644;48.834;10.088;2023-04-25T05:27:36;95959.78;;;12.92;56.32
20971;BME280;10644;48.834;10.088;2023-04-25T05:30:02;95964.91;;;12.70;56.10
20971;BME280;10644;48.834;10.088;2023-04-25T05:32:27;95962.25;;;12.48;56.89
20971;BME280;10644;48.834;10.088;2023-04-25T05:34:53;95952.69;;;12.50;56.71
20971;BME280;10644;48.834;10.088;2023-04-25T05:37:20;95977.66;;;12.48;57.15
20971;BME280;10644;48.834;10.088;2023-04-25T05:39:46;95969.91;;;12.37;57.53
20971;BME280;10644;48.834;10.088;2023-04-25T05:42:11;95971.16;;;12.32;57.19
20971;BME280;10644;48.834;10.088;2023-04-25T05:44:36;95971.69;;;12.13;57.96
20971;BME280;10644;48.834;10.088;2023-04-25T05:47:02;95971.41;;;12.05;58.50
20971;BME280;10644;48.834;10.088;2023-04-25T05:49:29;95965.13;;;12.09;58.12
20971;BME280;10644;48.834;10.088;2023-04-25T05:51:55;95967.91;;;12.06;58.31
20971;BME280;10644;48.834;10.088;2023-04-25T05:54:20;95962.22;;;12.14;58.13
20971;BME280;10644;48.834;10.088;2023-04-25T05:56:45;95971.94;;;12.21;58.84
20971;BME280;10644;48.834;10.088;2023-04-25T05:59:11;95978.06;;;12.31;57.83
20971;BME280;10644;48.834;10.088;2023-04-25T06:01:36;95979.31;;;12.26;58.56
20971;BME280;10644;48.834;10.088;2023-04-25T06:04:01;95977.88;;;12.11;58.26
20971;BME280;10644;48.834;10.088;2023-04-25T06:06:27;95984.59;;;12.24;58.01
20971;BME280;10644;48.834;10.088;2023-04-25T06:08:53;95975.22;;;12.23;58.31
20971;BME280;10644;48.834;10.088;2023-04-25T06:11:18;95975.59;;;12.06;58.39
20971;BME280;10644;48.834;10.088;2023-04-25T06:13:43;95980.69;;;11.95;58.63
20971;BME280;10644;48.834;10.088;2023-04-25T06:16:09;95978.75;;;11.99;58.47
20971;BME280;10644;48.834;10.088;2023-04-25T06:18:34;95985.50;;;12.00;59.15
20971;BME280;10644;48.834;10.088;2023-04-25T06:20:59;95982.41;;;12.07;58.63
20971;BME280;10644;48.834;10.088;2023-04-25T06:23:25;95984.78;;;12.21;58.28
20971;BME280;10644;48.834;10.088;2023-04-25T06:25:51;95984.00;;;12.21;58.57
20971;BME280;10644;48.834;10.088;2023-04-25T06:28:16;95987.84;;;12.26;58.53
20971;BME280;10644;48.834;10.088;2023-04-25T06:30:41;95988.88;;;12.24;58.79
20971;BME280;10644;48.834;10.088;2023-04-25T06:33:09;95998.88;;;12.39;58.47
20971;BME280;10644;48.834;10.088;2023-04-25T06:35:34;95984.16;;;12.30;58.34
20971;BME280;10644;48.834;10.088;2023-04-25T06:38:00;95974.53;;;12.21;58.94
20971;BME280;10644;48.834;10.088;2023-04-25T06:40:28;95991.56;;;12.22;58.64
20971;BME280;10644;48.834;10.088;2023-04-25T06:42:53;95979.09;;;12.05;58.52
20971;BME280;10644;48.834;10.088;2023-04-25T06:45:18;95979.34;;;12.02;58.16
20971;BME280;10644;48.834;10.088;2023-04-25T06:47:44;95976.72;;;11.91;58.85
20971;BME280;10644;48.834;10.088;2023-04-25T06:50:09;95978.34;;;11.92;59.09
20971;BME280;10644;48.834;10.088;2023-04-25T06:52:35;95968.28;;;12.13;58.83
20971;BME280;10644;48.834;10.088;2023-04-25T06:55:01;95973.28;;;12.27;58.60
20971;BME280;10644;48.834;10.088;2023-04-25T06:57:26;95989.72;;;12.24;58.43
20971;BME280;10644;48.834;10.088;2023-04-25T06:59:52;95989.47;;;12.27;58.36
20971;BME280;10644;48.834;10.088;2023-04-25T07:02:17;95989.97;;;12.09;58.65
20971;BME280;10644;48.834;10.088;2023-04-25T07:04:42;95988.44;;;12.06;59.18
20971;BME280;10644;48.834;10.088;2023-04-25T07:07:08;95991.28;;;12.14;59.03
20971;BME280;10644;48.834;10.088;2023-04-25T07:09:33;95985.06;;;12.06;58.52
20971;BME280;10644;48.834;10.088;2023-04-25T07:11:59;95987.47;;;12.20;58.04
20971;BME280;10644;48.834;10.088;2023-04-25T07:14:27;95985.81;;;12.19;57.81
20971;BME280;10644;48.834;10.088;2023-04-25T07:16:52;95989.53;;;12.15;57.96
20971;BME280;10644;48.834;10.088;2023-04-25T07:19:17;95994.41;;;12.30;58.17
20971;BME280;10644;48.834;10.088;2023-04-25T07:21:43;95984.00;;;12.21;58.27
20971;BME280;10644;48.834;10.088;2023-04-25T07:24:10;95979.31;;;12.26;58.82
20971;BME280;10644;48.834;10.088;2023-04-25T07:26:36;95982.38;;;12.31;58.27
20971;BME280;10644;48.834;10.088;2023-04-25T07:29:01;95983.94;;;12.44;57.70
20971;BME280;10644;48.834;10.088;2023-04-25T07:31:27;95992.78;;;12.40;57.43
20971;BME280;10644;48.834;10.088;2023-04-25T07:33:52;95981.72;;;12.40;57.46
20971;BME280;10644;48.834;10.088;2023-04-25T07:36:18;95984.34;;;12.27;57.08
20971;BME280;10644;48.834;10.088;2023-04-25T07:38:46;95987.47;;;12.20;57.39
20971;BME280;10644;48.834;10.088;2023-04-25T07:41:11;95997.03;;;12.41;57.67
20971;BME280;10644;48.834;10.088;2023-04-25T07:43:36;95992.78;;;12.29;56.99
20971;BME280;10644;48.834;10.088;2023-04-25T07:46:04;96001.97;;;12.32;56.70
20971;BME280;10644;48.834;10.088;2023-04-25T07:48:30;95999.75;;;12.51;56.29
20971;BME280;10644;48.834;10.088;2023-04-25T07:50:55;96004.53;;;12.55;56.23
20971;BME280;10644;48.834;10.088;2023-04-25T07:53:20;95991.13;;;12.28;56.76
20971;BME280;10644;48.834;10.088;2023-04-25T07:55:46;95992.16;;;12.26;56.41
20971;BME280;10644;48.834;10.088;2023-04-25T07:58:11;95990.47;;;12.37;56.20
20971;BME280;10644;48.834;10.088;2023-04-25T08:00:37;96001.22;;;12.19;56.68
20971;BME280;10644;48.834;10.088;2023-04-25T08:03:03;96016.28;;;12.23;57.02
20971;BME280;10644;48.834;10.088;2023-04-25T08:05:28;96022.75;;;12.29;57.10
20971;BME280;10644;48.834;10.088;2023-04-25T08:07:54;96007.34;;;12.52;56.78
20971;BME280;10644;48.834;10.088;2023-04-25T08:10:20;96009.47;;;12.35;56.61
20971;BME280;10644;48.834;10.088;2023-04-25T08:12:45;96007.75;;;12.35;57.00
20971;BME280;10644;48.834;10.088;2023-04-25T08:15:11;96026.91;;;12.42;57.14
20971;BME280;10644;48.834;10.088;2023-04-25T08:17:38;96027.78;;;12.30;57.08
20971;BME280;10644;48.834;10.088;2023-04-25T08:20:04;96029.75;;;12.03;58.11
20971;BME280;10644;48.834;10.088;2023-04-25T08:22:35;96039.75;;;11.83;58.61
20971;BME280;10644;48.834;10.088;2023-04-25T08:25:01;96042.59;;;11.91;59.16
20971;BME280;10644;48.834;10.088;2023-04-25T08:27:26;96047.47;;;12.06;58.71
20971;BME280;10644;48.834;10.088;2023-04-25T08:29:51;96061.31;;;12.16;58.71
20971;BME280;10644;48.834;10.088;2023-04-25T08:32:18;96051.97;;;12.15;59.00
20971;BME280;10644;48.834;10.088;2023-04-25T08:34:43;96052.38;;;12.22;59.58
20971;BME280;10644;48.834;10.088;2023-04-25T08:37:09;96058.66;;;12.41;59.02
20971;BME280;10644;48.834;10.088;2023-04-25T08:39:36;96057.44;;;12.58;57.84
20971;BME280;10644;48.834;10.088;2023-04-25T08:42:02;96060.63;;;12.61;58.87
20971;BME280;10644;48.834;10.088;2023-04-25T08:44:33;96061.81;;;12.68;57.40
20971;BME280;10644;48.834;10.088;2023-04-25T08:46:58;96063.22;;;12.72;57.30
20971;BME280;10644;48.834;10.088;2023-04-25T08:49:28;96073.16;;;12.77;57.46
20971;BME280;10644;48.834;10.088;2023-04-25T08:51:56;96075.31;;;12.83;57.17
20971;BME280;10644;48.834;10.088;2023-04-25T08:54:25;96077.22;;;12.68;57.19
20971;BME280;10644;48.834;10.088;2023-04-25T08:56:54;96080.63;;;12.45;58.05
20971;BME280;10644;48.834;10.088;2023-04-25T08:59:19;96092.56;;;12.46;57.97
20971;BME280;10644;48.834;10.088;2023-04-25T09:01:46;96089.50;;;12.41;58.00
20971;BME280;10644;48.834;10.088;2023-04-25T09:04:12;96091.63;;;12.47;58.27
20971;BME280;10644;48.834;10.088;2023-04-25T09:06:37;96104.22;;;12.50;58.25
20971;BME280;10644;48.834;10.088;2023-04-25T09:09:04;96089.06;;;12.47;57.78
20971;BME280;10644;48.834;10.088;2023-04-25T09:11:33;96103.59;;;12.59;58.10
20971;BME280;10644;48.834;10.088;2023-04-25T09:14:19;96109.78;;;12.57;57.42
20971;BME280;10644;48.834;10.088;2023-04-25T09:16:57;96106.88;;;12.61;57.11
20971;BME280;10644;48.834;10.088;2023-04-25T09:19:28;96106.75;;;12.39;57.48
20971;BME280;10644;48.834;10.088;2023-04-25T09:21:58;96104.66;;;12.44;57.12
20971;BME280;10644;48.834;10.088;2023-04-25T09:26:56;96106.06;;;12.61;57.23
20971;BME280;10644;48.834;10.088;2023-04-25T09:29:29;96117.78;;;12.76;56.37
20971;BME280;10644;48.834;10.088;2023-04-25T09:32:17;96121.00;;;12.43;55.99
20971;BME280;10644;48.834;10.088;2023-04-25T09:34:46;96128.72;;;12.07;57.25
20971;BME280;10644;48.834;10.088;2023-04-25T09:37:20;96123.66;;;12.18;56.89
20971;BME280;10644;48.834;10.088;2023-04-25T09:39:47;96109.13;;;11.94;57.13
20971;BME280;10644;48.834;10.088;2023-04-25T09:42:14;96099.53;;;12.08;57.04
20971;BME280;10644;48.834;10.088;2023-04-25T09:44:46;96118.31;;;12.21;57.31
20971;BME280;10644;48.834;10.088;2023-04-25T09:47:15;96107.66;;;12.38;56.50
20971;BME280;10644;48.834;10.088;2023-04-25T09:49:46;96123.78;;;12.40;56.01
20971;BME280;10644;48.834;10.088;2023-04-25T09:52:17;96121.50;;;12.48;56.24
20971;BME280;10644;48.834;10.088;2023-04-25T09:54:46;96142.63;;;12.64;55.91
20971;BME280;10644;48.834;10.088;2023-04-25T09:57:35;96127.41;;;12.61;55.55
20971;BME280;10644;48.834;10.088;2023-04-25T10:00:10;96130.19;;;12.35;55.86
20971;BME280;10644;48.834;10.088;2023-04-25T10:09:40;96134.03;;;12.53;55.65
20971;BME280;10644;48.834;10.088;2023-04-25T10:12:24;96127.09;;;12.89;55.58
20971;BME280;10644;48.834;10.088;2023-04-25T10:15:11;96116.19;;;12.98;54.84
20971;BME280;10644;48.834;10.088;2023-04-25T10:34:17;96121.25;;;12.87;53.87
20971;BME280;10644;48.834;10.088;2023-04-25T10:36:59;96114.19;;;12.78;54.55
20971;BME280;10644;48.834;10.088;2023-04-25T10:39:49;96130.22;;;12.58;55.65
20971;BME280;10644;48.834;10.088;2023-04-25T10:42:33;96138.31;;;12.88;55.02
20971;BME280;10644;48.834;10.088;2023-04-25T10:45:29;96119.28;;;12.91;54.57
20971;BME280;10644;48.834;10.088;2023-04-25T10:48:27;96130.78;;;12.85;53.72
20971;BME280;10644;48.834;10.088;2023-04-25T10:51:34;96132.59;;;13.08;52.40
20971;BME280;10644;48.834;10.088;2023-04-25T10:54:17;96136.66;;;12.87;52.96
20971;BME280;10644;48.834;10.088;2023-04-25T11:00:22;96136.28;;;12.81;53.50
20971;BME280;10644;48.834;10.088;2023-04-25T11:03:32;96141.53;;;12.79;53.12
20971;BME280;10644;48.834;10.088;2023-04-25T11:09:20;96142.38;;;13.03;53.06
20971;BME280;10644;48.834;10.088;2023-04-25T11:12:14;96139.91;;;13.02;53.09
20971;BME280;10644;48.834;10.088;2023-04-25T11:15:05;96128.25;;;13.09;52.76
20971;BME280;10644;48.834;10.088;2023-04-25T11:17:32;96145.50;;;13.19;52.93
20971;BME280;10644;48.834;10.088;2023-04-25T11:20:11;96135.63;;;13.48;52.15
20971;BME280;10644;48.834;10.088;2023-04-25T11:22:39;96124.28;;;13.50;52.31
20971;BME280;10644;48.834;10.088;2023-04-25T11:25:09;96139.50;;;13.53;52.45
20971;BME280;10644;48.834;10.088;2023-04-25T11:27:38;96139.03;;;13.48;52.13
20971;BME280;10644;48.834;10.088;2023-04-25T11:30:14;96141.63;;;13.70;51.97
20971;BME280;10644;48.834;10.088;2023-04-25T11:32:46;96137.19;;;13.83;50.85
20971;BME280;10644;48.834;10.088;2023-04-25T11:35:12;96139.06;;;13.81;50.38
20971;BME280;10644;48.834;10.088;2023-04-25T11:37:43;96135.22;;;13.86;50.83
20971;BME280;10644;48.834;10.088;2023-04-25T11:40:10;96135.09;;;13.88;51.40
20971;BME280;10644;48.834;10.088;2023-04-25T11:42:37;96134.03;;;13.90;51.17
20971;BME280;10644;48.834;10.088;2023-04-25T11:45:04;96123.84;;;13.89;52.32
20971;BME280;10644;48.834;10.088;2023-04-25T11:47:31;96151.72;;;13.95;53.11
20971;BME280;10644;48.834;10.088;2023-04-25T11:50:03;96148.31;;;13.94;53.19
20971;BME280;10644;48.834;10.088;2023-04-25T11:52:45;96167.81;;;13.75;54.57
20971;BME280;10644;48.834;10.088;2023-04-25T11:57:41;96183.16;;;13.31;55.76
20971;BME280;10644;48.834;10.088;2023-04-25T12:00:10;96197.06;;;13.29;56.31
20971;BME280;10644;48.834;10.088;2023-04-25T12:02:46;96196.53;;;13.13;56.78
20971;BME280;10644;48.834;10.088;2023-04-25T12:05:14;96200.34;;;12.71;57.65
20971;BME280;10644;48.834;10.088;2023-04-25T12:07:41;96192.16;;;12.66;57.81
20971;BME280;10644;48.834;10.088;2023-04-25T12:10:09;96195.00;;;12.38;57.98
20971;BME280;10644;48.834;10.088;2023-04-25T12:12:36;96193.44;;;12.48;58.49
20971;BME280;10644;48.834;10.088;2023-04-25T12:15:17;96200.34;;;12.35;58.65
20971;BME280;10644;48.834;10.088;2023-04-25T12:17:47;96226.94;;;12.34;59.12
20971;BME280;10644;48.834;10.088;2023-04-25T12:20:15;96204.47;;;12.25;58.96
20971;BME280;10644;48.834;10.088;2023-04-25T12:22:43;96221.59;;;12.37;58.92
20971;BME280;10644;48.834;10.088;2023-04-25T12:25:13;96215.97;;;12.20;59.24
20971;BME280;10644;48.834;10.088;2023-04-25T12:27:39;96208.28;;;11.95;60.34
20971;BME280;10644;48.834;10.088;2023-04-25T12:30:09;96214.63;;;11.64;62.11
20971;BME280;10644;48.834;10.088;2023-04-25T12:32:38;96218.53;;;11.70;61.81
20971;BME280;10644;48.834;10.088;2023-04-25T12:35:06;96218.88;;;11.90;61.55
20971;BME280;10644;48.834;10.088;2023-04-25T12:37:31;96219.16;;;11.86;61.81
20971;BME280;10644;48.834;10.088;2023-04-25T12:40:05;96215.38;;;11.91;61.82
20971;BME280;10644;48.834;10.088;2023-04-25T12:42:31;96228.16;;;11.66;61.63
20971;BME280;10644;48.834;10.088;2023-04-25T12:44:59;96215.19;;;11.55;62.29
20971;BME280;10644;48.834;10.088;2023-04-25T12:47:25;96244.94;;;11.84;61.46
20971;BME280;10644;48.834;10.088;2023-04-25T12:49:50;96225.81;;;11.88;60.63
20971;BME280;10644;48.834;10.088;2023-04-25T12:52:16;96238.66;;;11.76;61.35
20971;BME280;10644;48.834;10.088;2023-04-25T12:54:41;96240.28;;;11.89;60.43
20971;BME280;10644;48.834;10.088;2023-04-25T12:57:06;96242.56;;;11.81;61.42
20971;BME280;10644;48.834;10.088;2023-04-25T12:59:32;96244.03;;;11.59;60.97
20971;BME280;10644;48.834;10.088;2023-04-25T13:01:58;96243.63;;;11.52;60.90
20971;BME280;10644;48.834;10.088;2023-04-25T13:04:23;96260.81;;;11.64;60.74
20971;BME280;10644;48.834;10.088;2023-04-25T13:06:51;96248.31;;;11.85;61.00
20971;BME280;10644;48.834;10.088;2023-04-25T13:09:18;96250.06;;;12.09;60.70
20971;BME280;10644;48.834;10.088;2023-04-25T13:11:44;96257.56;;;12.25;61.36
20971;BME280;10644;48.834;10.088;2023-04-25T13:14:11;96258.59;;;12.10;59.87
20971;BME280;10644;48.834;10.088;2023-04-25T13:16:38;96260.16;;;12.12;59.97
20971;BME280;10644;48.834;10.088;2023-04-25T13:19:04;96254.09;;;12.13;60.28
20971;BME280;10644;48.834;10.088;2023-04-25T13:21:36;96264.75;;;12.20;61.12
20971;BME280;10644;48.834;10.088;2023-04-25T13:24:01;96264.75;;;12.32;61.59
20971;BME280;10644;48.834;10.088;2023-04-25T13:26:29;96258.38;;;12.50;60.19
20971;BME280;10644;48.834;10.088;2023-04-25T13:28:54;96275.41;;;12.76;60.53